createdAt,value
2023-04-23T00:01:17.705Z,30.60
2023-04-23T00:03:45.343Z,30.65
2023-04-23T00:06:13.166Z,32.30
2023-04-23T00:08:40.880Z,32.00
2023-04-23T00:11:09.029Z,32.42
2023-04-23T00:13:36.838Z,30.05
2023-04-23T00:16:04.841Z,31.10
2023-04-23T00:18:32.492Z,29.95
2023-04-23T00:20:59.803Z,28.98
2023-04-23T00:23:28.107Z,26.45
2023-04-23T00:25:55.355Z,25.70
2023-04-23T00:28:23.018Z,25.83
2023-04-23T00:30:51.160Z,24.23
2023-04-23T00:33:18.406Z,24.67
2023-04-23T00:35:45.719Z,22.45
2023-04-23T00:38:13.070Z,20.05
2023-04-23T00:40:40.353Z,19.23
2023-04-23T00:43:08.242Z,17.58
2023-04-23T00:45:35.658Z,18.02
2023-04-23T00:48:03.837Z,17.02
2023-04-23T00:50:31.120Z,17.52
2023-04-23T00:52:58.342Z,15.23
2023-04-23T00:55:25.665Z,14.57
2023-04-23T00:57:54.185Z,14.07
2023-04-23T01:00:21.599Z,13.80
2023-04-23T01:02:49.893Z,12.90
2023-04-23T01:05:17.989Z,12.75
2023-04-23T01:07:45.590Z,12.15
2023-04-23T01:10:12.866Z,10.93
2023-04-23T01:12:40.350Z,11.00
2023-04-23T01:15:09.023Z,10.80
2023-04-23T01:17:37.171Z,11.13
2023-04-23T01:20:06.584Z,10.25
2023-04-23T01:22:37.788Z,11.07
2023-04-23T01:25:05.829Z,9.02
2023-04-23T01:27:33.270Z,10.38
2023-04-23T01:30:00.742Z,9.02
2023-04-23T01:32:27.974Z,8.90
2023-04-23T01:34:55.487Z,9.68
2023-04-23T01:37:23.850Z,9.90
2023-04-23T01:39:51.732Z,9.70
2023-04-23T01:42:18.994Z,9.52
2023-04-23T01:44:46.265Z,10.35
2023-04-23T01:47:13.480Z,10.93
2023-04-23T01:49:40.894Z,10.85
2023-04-23T01:52:08.132Z,10.32
2023-04-23T01:54:35.794Z,11.57
2023-04-23T01:57:03.904Z,13.85
2023-04-23T01:59:31.796Z,14.35
2023-04-23T02:01:59.287Z,14.23
2023-04-23T02:04:26.725Z,15.73
2023-04-23T02:06:54.363Z,15.57
2023-04-23T02:09:21.574Z,15.48
2023-04-23T02:11:48.881Z,14.70
2023-04-23T02:14:17.425Z,15.23
2023-04-23T02:16:45.095Z,17.05
2023-04-23T02:19:14.118Z,14.02
2023-04-23T02:21:43.147Z,15.10
2023-04-23T02:24:10.992Z,15.13
2023-04-23T02:26:38.267Z,15.20
2023-04-23T02:29:05.793Z,16.02
2023-04-23T02:31:33.691Z,14.95
2023-04-23T02:34:01.007Z,17.25
2023-04-23T02:36:31.034Z,17.48
2023-04-23T02:38:58.271Z,16.52
2023-04-23T02:41:25.519Z,16.73
2023-04-23T02:43:52.730Z,16.60
2023-04-23T02:46:20.039Z,16.20
2023-04-23T02:48:47.455Z,16.35
2023-04-23T02:51:14.740Z,17.23
2023-04-23T02:53:41.994Z,17.08
2023-04-23T02:56:09.269Z,18.60
2023-04-23T02:58:36.833Z,16.90
2023-04-23T03:01:04.177Z,18.17
2023-04-23T03:03:34.439Z,20.23
2023-04-23T03:06:02.023Z,17.23
2023-04-23T03:08:29.373Z,18.88
2023-04-23T03:10:56.600Z,18.08
2023-04-23T03:13:24.014Z,18.73
2023-04-23T03:15:51.444Z,19.58
2023-04-23T03:18:18.885Z,20.13
2023-04-23T03:20:46.481Z,19.50
2023-04-23T03:23:13.741Z,20.08
2023-04-23T03:25:41.098Z,19.80
2023-04-23T03:28:08.321Z,19.48
2023-04-23T03:30:35.606Z,20.35
2023-04-23T03:33:03.073Z,20.48
2023-04-23T03:35:30.536Z,21.55
2023-04-23T03:37:57.908Z,20.23
2023-04-23T03:40:25.136Z,21.80
2023-04-23T03:42:52.630Z,20.75
2023-04-23T03:45:19.891Z,20.88
2023-04-23T03:47:47.245Z,21.30
2023-04-23T03:50:14.645Z,20.27
2023-04-23T03:52:42.107Z,20.55
2023-04-23T03:55:09.633Z,19.23
2023-04-23T03:57:37.160Z,19.77
2023-04-23T04:00:05.149Z,19.85
2023-04-23T04:02:32.628Z,18.15
2023-04-23T04:05:00.362Z,18.23
2023-04-23T04:07:28.388Z,17.33
2023-04-23T04:09:55.700Z,17.00
2023-04-23T04:12:23.398Z,18.92
2023-04-23T04:14:50.628Z,18.38
2023-04-23T04:17:17.879Z,20.48
2023-04-23T04:19:45.120Z,18.08
2023-04-23T04:22:12.349Z,20.10
2023-04-23T04:24:41.990Z,17.45
2023-04-23T04:27:09.730Z,19.17
2023-04-23T04:29:37.146Z,17.10
2023-04-23T04:32:05.293Z,16.50
2023-04-23T04:34:33.202Z,15.02
2023-04-23T04:37:00.840Z,13.85
2023-04-23T04:39:28.073Z,14.95
2023-04-23T04:41:55.440Z,12.77
2023-04-23T04:44:23.039Z,12.07
2023-04-23T04:46:50.307Z,10.38
2023-04-23T04:49:19.583Z,10.90
2023-04-23T04:51:47.449Z,9.88
2023-04-23T04:54:14.770Z,9.20
2023-04-23T04:56:42.042Z,8.57
2023-04-23T04:59:09.244Z,9.13
2023-04-23T05:01:37.498Z,7.75
2023-04-23T05:04:05.142Z,8.27
2023-04-23T05:06:33.043Z,10.50
2023-04-23T05:09:00.351Z,11.30
2023-04-23T05:11:27.649Z,8.50
2023-04-23T05:13:55.202Z,6.05
2023-04-23T05:16:22.480Z,5.80
2023-04-23T05:18:49.708Z,5.55
2023-04-23T05:21:16.964Z,6.05
2023-04-23T05:23:44.276Z,5.63
2023-04-23T05:26:11.731Z,5.95
2023-04-23T05:28:39.070Z,5.72
2023-04-23T05:31:06.395Z,6.03
2023-04-23T05:33:39.494Z,5.53
2023-04-23T05:36:13.974Z,5.90
2023-04-23T05:38:41.258Z,5.55
2023-04-23T05:41:08.617Z,5.22
2023-04-23T05:43:35.950Z,5.28
2023-04-23T05:46:04.783Z,6.57
2023-04-23T05:48:32.552Z,6.00
2023-04-23T05:50:59.764Z,5.88
2023-04-23T05:53:28.122Z,5.78
2023-04-23T05:55:55.393Z,6.72
2023-04-23T05:58:22.748Z,5.80
2023-04-23T06:00:50.244Z,6.38
2023-04-23T06:03:17.751Z,7.07
2023-04-23T06:05:45.401Z,6.47
2023-04-23T06:08:12.646Z,7.45
2023-04-23T06:10:39.860Z,8.10
2023-04-23T06:13:07.382Z,7.50
2023-04-23T06:15:34.921Z,7.85
2023-04-23T06:18:02.160Z,7.55
2023-04-23T06:20:29.878Z,8.02
2023-04-23T06:22:57.176Z,8.40
2023-04-23T06:25:24.432Z,7.63
2023-04-23T06:27:51.723Z,7.80
2023-04-23T06:30:19.150Z,6.80
2023-04-23T06:32:46.691Z,7.32
2023-04-23T06:35:13.999Z,7.38
2023-04-23T06:37:41.256Z,8.40
2023-04-23T06:40:08.845Z,7.13
2023-04-23T06:42:36.474Z,7.10
2023-04-23T06:45:06.208Z,7.00
2023-04-23T06:47:34.246Z,6.87
2023-04-23T06:50:02.233Z,6.40
2023-04-23T06:52:29.554Z,5.93
2023-04-23T06:54:56.787Z,6.30
2023-04-23T06:57:24.033Z,6.30
2023-04-23T06:59:51.353Z,5.82
2023-04-23T07:02:18.612Z,4.78
2023-04-23T07:04:46.960Z,4.97
2023-04-23T07:07:14.937Z,4.82
2023-04-23T07:09:42.180Z,4.88
2023-04-23T07:12:09.412Z,4.53
2023-04-23T07:14:37.447Z,4.53
2023-04-23T07:17:04.756Z,4.28
2023-04-23T07:19:32.096Z,3.88
2023-04-23T07:21:59.381Z,3.83
2023-04-23T07:24:26.850Z,3.92
2023-04-23T07:26:54.104Z,3.42
2023-04-23T07:29:21.436Z,3.15
2023-04-23T07:31:48.700Z,3.28
2023-04-23T07:34:16.014Z,3.03
2023-04-23T07:36:43.255Z,2.92
2023-04-23T07:39:11.069Z,2.95
2023-04-23T07:41:38.580Z,2.22
2023-04-23T07:44:06.138Z,2.58
2023-04-23T07:46:33.871Z,2.60
2023-04-23T07:49:01.305Z,4.03
2023-04-23T07:51:28.777Z,2.88
2023-04-23T07:53:56.586Z,2.75
2023-04-23T07:56:24.715Z,3.00
2023-04-23T07:58:53.870Z,2.75
2023-04-23T08:01:21.791Z,3.65
2023-04-23T08:03:49.280Z,4.75
2023-04-23T08:06:18.256Z,2.88
2023-04-23T08:08:45.555Z,2.60
2023-04-23T08:11:12.788Z,5.53
2023-04-23T08:13:40.110Z,2.38
2023-04-23T08:16:07.364Z,2.53
2023-04-23T08:18:35.308Z,2.70
2023-04-23T08:21:02.530Z,3.75
2023-04-23T08:23:29.887Z,4.82
2023-04-23T08:25:57.428Z,2.78
2023-04-23T08:28:25.290Z,5.10
2023-04-23T08:30:52.558Z,3.60
2023-04-23T08:33:19.813Z,2.13
2023-04-23T08:35:47.034Z,5.90
2023-04-23T08:38:14.338Z,5.47
2023-04-23T08:40:42.436Z,4.63
2023-04-23T08:43:16.530Z,2.33
2023-04-23T08:45:46.379Z,2.50
2023-04-23T08:48:13.913Z,2.67
2023-04-23T08:50:44.535Z,10.35
2023-04-23T08:53:11.796Z,4.78
2023-04-23T08:55:39.102Z,2.42
2023-04-23T08:58:06.657Z,4.45
2023-04-23T09:00:34.899Z,3.08
2023-04-23T09:03:02.632Z,2.40
2023-04-23T09:05:30.259Z,2.55
2023-04-23T09:07:58.984Z,3.90
2023-04-23T09:10:26.259Z,13.32
2023-04-23T09:12:53.465Z,6.72
2023-04-23T09:15:20.767Z,8.15
2023-04-23T09:17:49.820Z,4.75
2023-04-23T09:20:17.699Z,3.03
2023-04-23T09:22:49.217Z,3.25
2023-04-23T09:25:17.995Z,4.63
2023-04-23T09:27:46.445Z,3.70
2023-04-23T09:30:13.922Z,5.75
2023-04-23T09:32:42.967Z,12.32
2023-04-23T09:35:11.848Z,6.03
2023-04-23T09:37:44.145Z,21.50
2023-04-23T09:40:11.419Z,7.45
2023-04-23T09:42:39.672Z,15.02
2023-04-23T09:45:08.314Z,8.85
2023-04-23T09:47:38.271Z,3.78
2023-04-23T09:50:06.103Z,12.05
2023-04-23T09:52:34.117Z,3.50
2023-04-23T09:55:02.049Z,3.92
2023-04-23T09:57:29.619Z,5.72
2023-04-23T10:00:06.946Z,12.95
2023-04-23T10:02:40.007Z,14.13
2023-04-23T10:05:24.260Z,4.80
2023-04-23T10:07:53.025Z,14.98
2023-04-23T10:10:20.460Z,4.60
2023-04-23T10:12:54.989Z,3.92
2023-04-23T10:15:27.164Z,21.50
2023-04-23T10:17:55.666Z,6.30
2023-04-23T10:20:23.395Z,5.85
2023-04-23T10:22:50.681Z,15.77
2023-04-23T10:25:18.434Z,10.93
2023-04-23T10:27:53.819Z,16.95
2023-04-23T10:30:22.225Z,7.07
2023-04-23T10:32:49.909Z,8.45
2023-04-23T10:35:17.250Z,15.93
2023-04-23T10:37:44.886Z,13.80
2023-04-23T10:40:14.191Z,4.93
2023-04-23T10:42:43.088Z,14.43
2023-04-23T10:47:47.824Z,17.52
2023-04-23T10:50:32.823Z,7.88
2023-04-23T10:53:00.044Z,5.70
2023-04-23T10:55:28.703Z,19.02
2023-04-23T10:58:05.980Z,12.63
2023-04-23T11:00:45.844Z,16.98
2023-04-23T11:03:32.922Z,9.97
2023-04-23T11:06:04.058Z,7.43
2023-04-23T11:08:34.715Z,5.75
2023-04-23T11:11:03.449Z,5.55
2023-04-23T11:13:31.317Z,14.02
2023-04-23T11:16:18.710Z,9.50
2023-04-23T11:19:06.478Z,5.00
2023-04-23T11:21:56.230Z,5.70
2023-04-23T11:24:24.672Z,9.85
2023-04-23T11:26:52.504Z,12.48
2023-04-23T11:29:21.808Z,8.18
2023-04-23T11:32:01.848Z,14.73
2023-04-23T11:34:31.278Z,4.35
2023-04-23T11:36:59.258Z,16.77
2023-04-23T11:39:27.064Z,6.78
2023-04-23T11:41:54.865Z,11.18
2023-04-23T11:44:22.241Z,6.18
2023-04-23T11:46:50.016Z,8.25
2023-04-23T11:49:17.494Z,5.18
2023-04-23T11:51:45.039Z,11.30
2023-04-23T11:54:13.587Z,8.57
2023-04-23T11:56:41.482Z,4.57
2023-04-23T11:59:08.765Z,8.57
2023-04-23T12:01:43.178Z,11.35
2023-04-23T12:04:18.766Z,15.73
2023-04-23T12:06:46.901Z,8.98
2023-04-23T12:09:15.259Z,7.55
2023-04-23T12:11:42.920Z,10.25
2023-04-23T12:14:10.790Z,7.32
2023-04-23T12:16:45.125Z,6.53
2023-04-23T12:19:16.734Z,10.63
2023-04-23T12:21:51.811Z,8.18
2023-04-23T12:24:19.029Z,13.30
2023-04-23T12:26:46.361Z,4.40
2023-04-23T12:29:13.951Z,8.10
2023-04-23T12:31:43.009Z,12.07
2023-04-23T12:34:10.686Z,10.68
2023-04-23T12:36:38.600Z,14.70
2023-04-23T12:39:30.954Z,9.55
2023-04-23T12:42:06.678Z,10.50
2023-04-23T12:44:35.389Z,12.25
2023-04-23T12:47:07.565Z,8.43
2023-04-23T12:49:35.994Z,16.55
2023-04-23T12:52:03.997Z,19.23
2023-04-23T12:54:37.342Z,7.03
2023-04-23T12:57:06.546Z,13.95
2023-04-23T12:59:33.975Z,3.67
2023-04-23T13:02:04.867Z,2.67
2023-04-23T13:07:00.684Z,2.40
2023-04-23T13:09:28.843Z,2.50
2023-04-23T13:11:56.133Z,3.40
2023-04-23T13:14:23.717Z,2.92
2023-04-23T13:16:51.152Z,2.60
2023-04-23T13:19:18.433Z,2.20
2023-04-23T13:21:45.863Z,2.92
2023-04-23T13:24:13.223Z,2.20
2023-04-23T13:26:40.779Z,2.72
2023-04-23T13:29:08.085Z,2.50
2023-04-23T13:31:35.587Z,2.42
2023-04-23T13:34:03.192Z,2.00
2023-04-23T13:36:30.684Z,2.47
2023-04-23T13:38:57.962Z,2.00
2023-04-23T13:41:25.297Z,2.80
2023-04-23T13:43:52.863Z,2.55
2023-04-23T13:46:20.354Z,2.88
2023-04-23T13:48:47.638Z,3.17
2023-04-23T13:51:33.155Z,2.75
2023-04-23T13:54:01.664Z,2.75
2023-04-23T13:56:30.394Z,2.30
2023-04-23T14:01:33.854Z,2.92
2023-04-23T14:04:01.270Z,2.97
2023-04-23T14:06:28.624Z,3.00
2023-04-23T14:08:55.996Z,3.40
2023-04-23T14:11:23.527Z,3.67
2023-04-23T14:13:51.647Z,2.90
2023-04-23T14:16:19.202Z,2.80
2023-04-23T14:18:46.510Z,4.10
2023-04-23T14:21:16.126Z,3.97
2023-04-23T14:24:01.922Z,4.05
2023-04-23T14:29:04.817Z,3.22
2023-04-23T14:31:32.263Z,2.92
2023-04-23T14:33:59.556Z,3.30
2023-04-23T14:36:26.945Z,3.30
2023-04-23T14:38:54.464Z,3.33
2023-04-23T14:41:21.727Z,2.97
2023-04-23T14:43:49.069Z,5.30
2023-04-23T14:46:16.341Z,6.93
2023-04-23T14:48:43.660Z,3.53
2023-04-23T14:51:10.896Z,3.25
2023-04-23T14:53:38.391Z,8.75
2023-04-23T14:56:05.976Z,8.63
2023-04-23T14:58:33.283Z,3.80
2023-04-23T15:01:00.622Z,3.80
2023-04-23T15:03:28.638Z,4.20
2023-04-23T15:05:56.875Z,3.72
2023-04-23T15:08:24.141Z,8.93
2023-04-23T15:10:51.385Z,4.13
2023-04-23T15:13:30.719Z,3.50
2023-04-23T15:16:02.839Z,5.63
2023-04-23T15:18:30.338Z,3.85
2023-04-23T15:20:57.651Z,3.20
2023-04-23T15:23:24.889Z,3.28
2023-04-23T15:25:52.596Z,4.13
2023-04-23T15:28:19.876Z,3.45
2023-04-23T15:30:47.659Z,4.90
2023-04-23T15:33:14.942Z,3.10
2023-04-23T15:35:42.249Z,8.13
2023-04-23T15:38:09.560Z,3.05
2023-04-23T15:40:42.168Z,3.38
2023-04-23T15:43:13.518Z,4.80
2023-04-23T15:48:08.330Z,3.92
2023-04-23T15:50:36.173Z,2.50
2023-04-23T15:53:03.538Z,2.50
2023-04-23T15:55:32.532Z,2.50
2023-04-23T15:58:01.868Z,3.63
2023-04-23T16:00:29.582Z,3.45
2023-04-23T16:02:58.727Z,2.80
2023-04-23T16:05:26.249Z,2.88
2023-04-23T16:07:53.519Z,2.30
2023-04-23T16:10:20.872Z,2.80
2023-04-23T16:12:48.812Z,2.42
2023-04-23T16:15:16.105Z,2.28
2023-04-23T16:17:43.396Z,2.35
2023-04-23T16:20:10.874Z,2.10
2023-04-23T16:22:38.332Z,2.47
2023-04-23T16:25:06.473Z,2.67
2023-04-23T16:27:33.846Z,2.30
2023-04-23T16:30:01.150Z,2.67
2023-04-23T16:32:28.456Z,2.50
2023-04-23T16:34:55.851Z,2.50
2023-04-23T16:37:23.192Z,2.42
2023-04-23T16:39:50.512Z,2.70
2023-04-23T16:42:17.760Z,2.65
2023-04-23T16:44:46.823Z,2.58
2023-04-23T16:47:14.093Z,2.55
2023-04-23T16:49:41.380Z,2.92
2023-04-23T16:52:08.615Z,2.63
2023-04-23T16:54:36.238Z,2.72
2023-04-23T16:57:05.883Z,2.22
2023-04-23T16:59:33.621Z,2.80
2023-04-23T17:02:00.993Z,3.00
2023-04-23T17:04:28.601Z,2.95
2023-04-23T17:06:56.127Z,3.10
2023-04-23T17:09:23.386Z,4.00
2023-04-23T17:11:50.615Z,4.10
2023-04-23T17:14:17.815Z,3.60
2023-04-23T17:16:45.062Z,4.15
2023-04-23T17:19:12.332Z,3.90
2023-04-23T17:21:39.618Z,4.40
2023-04-23T17:24:06.853Z,3.40
2023-04-23T17:26:34.293Z,3.78
2023-04-23T17:29:01.517Z,4.10
2023-04-23T17:31:29.013Z,3.85
2023-04-23T17:33:57.513Z,4.15
2023-04-23T17:36:24.805Z,3.67
2023-04-23T17:38:52.160Z,3.63
2023-04-23T17:41:19.402Z,3.90
2023-04-23T17:43:46.794Z,4.30
2023-04-23T17:46:14.069Z,4.68
2023-04-23T17:48:41.477Z,4.00
2023-04-23T17:51:08.779Z,4.93
2023-04-23T17:53:36.451Z,4.65
2023-04-23T17:56:03.753Z,4.05
2023-04-23T17:58:31.692Z,4.35
2023-04-23T18:00:59.120Z,4.93
2023-04-23T18:03:27.251Z,5.75
2023-04-23T18:05:55.197Z,5.63
2023-04-23T18:08:22.426Z,5.30
2023-04-23T18:10:49.748Z,5.60
2023-04-23T18:13:17.160Z,5.90
2023-04-23T18:15:49.460Z,6.03
2023-04-23T18:18:17.593Z,5.72
2023-04-23T18:20:46.292Z,5.43
2023-04-23T18:23:14.362Z,5.93
2023-04-23T18:25:42.063Z,5.78
2023-04-23T18:28:09.542Z,5.70
2023-04-23T18:30:37.432Z,5.30
2023-04-23T18:33:34.313Z,5.88
2023-04-23T18:36:04.448Z,5.20
2023-04-23T18:38:38.446Z,5.35
2023-04-23T18:41:05.940Z,5.57
2023-04-23T18:43:34.182Z,6.28
2023-04-23T18:46:02.048Z,6.50
2023-04-23T18:48:38.375Z,6.80
2023-04-23T18:51:13.242Z,5.90
2023-04-23T18:53:40.452Z,5.95
2023-04-23T18:56:07.719Z,5.85
2023-04-23T18:58:35.397Z,5.55
2023-04-23T19:01:03.157Z,6.57
2023-04-23T19:03:31.656Z,5.95
2023-04-23T19:05:59.013Z,6.07
2023-04-23T19:08:28.888Z,5.72
2023-04-23T19:10:56.452Z,6.05
2023-04-23T19:13:23.872Z,6.38
2023-04-23T19:15:51.536Z,5.88
2023-04-23T19:18:18.965Z,6.25
2023-04-23T19:20:46.233Z,5.53
2023-04-23T19:23:13.501Z,6.10
2023-04-23T19:25:40.844Z,5.93
2023-04-23T19:28:08.108Z,6.90
2023-04-23T19:30:37.885Z,6.82
2023-04-23T19:33:05.191Z,8.07
2023-04-23T19:35:32.860Z,6.95
2023-04-23T19:38:00.273Z,6.07
2023-04-23T19:40:27.500Z,6.50
2023-04-23T19:42:54.758Z,6.68
2023-04-23T19:45:22.007Z,6.68
2023-04-23T19:47:49.335Z,7.30
2023-04-23T19:50:16.723Z,8.05
2023-04-23T19:52:44.245Z,7.50
2023-04-23T19:55:11.634Z,8.13
2023-04-23T19:57:39.063Z,8.73
2023-04-23T20:00:07.146Z,9.93
2023-04-23T20:02:35.299Z,10.45
2023-04-23T20:05:03.416Z,10.10
2023-04-23T20:07:31.040Z,10.80
2023-04-23T20:09:58.279Z,10.75
2023-04-23T20:12:25.828Z,11.10
2023-04-23T20:14:54.327Z,11.10
2023-04-23T20:17:22.724Z,11.80
2023-04-23T20:19:50.000Z,10.05
2023-04-23T20:22:17.271Z,9.63
2023-04-23T20:24:46.983Z,11.10
2023-04-23T20:27:14.536Z,13.43
2023-04-23T20:29:42.325Z,12.45
2023-04-23T20:32:09.977Z,12.88
2023-04-23T20:34:37.849Z,11.77
2023-04-23T20:37:06.774Z,12.10
2023-04-23T20:39:34.389Z,11.93
2023-04-23T20:42:01.721Z,10.13
2023-04-23T20:44:29.170Z,10.88
2023-04-23T20:46:58.032Z,11.13
2023-04-23T20:49:25.783Z,11.35
2023-04-23T20:51:53.344Z,12.50
2023-04-23T20:54:20.633Z,11.82
2023-04-23T20:56:47.921Z,10.30
2023-04-23T20:59:15.378Z,10.27
2023-04-23T21:01:42.705Z,10.73
2023-04-23T21:04:10.179Z,10.65
2023-04-23T21:06:37.767Z,11.57
2023-04-23T21:09:05.137Z,10.90
2023-04-23T21:11:33.749Z,11.13
2023-04-23T21:14:01.596Z,12.60
2023-04-23T21:16:30.463Z,11.02
2023-04-23T21:18:57.774Z,11.80
2023-04-23T21:21:28.027Z,10.77
2023-04-23T21:23:56.327Z,11.38
2023-04-23T21:26:23.944Z,12.30
2023-04-23T21:28:51.209Z,12.52
2023-04-23T21:31:25.951Z,11.98
2023-04-23T21:33:54.343Z,12.25
2023-04-23T21:36:23.432Z,11.88
2023-04-23T21:38:50.750Z,11.75
2023-04-23T21:41:17.977Z,12.52
2023-04-23T21:43:45.773Z,14.70
2023-04-23T21:46:12.981Z,12.85
2023-04-23T21:48:40.816Z,13.60
2023-04-23T21:51:08.076Z,12.75
2023-04-23T21:53:35.503Z,12.85
2023-04-23T21:56:02.983Z,13.05
2023-04-23T21:58:31.293Z,12.43
2023-04-23T22:00:58.570Z,13.15
2023-04-23T22:03:38.447Z,13.15
2023-04-23T22:06:06.993Z,12.47
2023-04-23T22:08:34.755Z,13.88
2023-04-23T22:11:01.984Z,13.70
2023-04-23T22:13:29.372Z,13.95
2023-04-23T22:15:57.461Z,12.75
2023-04-23T22:18:25.083Z,14.77
2023-04-23T22:20:53.026Z,13.13
2023-04-23T22:23:20.531Z,13.40
2023-04-23T22:25:47.958Z,13.68
2023-04-23T22:28:15.495Z,14.23
2023-04-23T22:30:42.972Z,15.18
2023-04-23T22:33:10.315Z,15.43
2023-04-23T22:35:37.563Z,14.38
2023-04-23T22:38:04.900Z,16.00
2023-04-23T22:40:32.141Z,15.68
2023-04-23T22:42:59.367Z,14.52
2023-04-23T22:45:26.646Z,16.20
2023-04-23T22:47:53.993Z,17.05
2023-04-23T22:50:22.276Z,17.02
2023-04-23T22:52:49.551Z,17.45
2023-04-23T22:55:16.960Z,16.77
2023-04-23T22:57:44.315Z,18.58
2023-04-23T23:00:12.975Z,18.52
2023-04-23T23:02:40.570Z,18.40
2023-04-23T23:05:08.104Z,19.50
2023-04-23T23:07:35.747Z,20.60
2023-04-23T23:10:03.815Z,22.17
2023-04-23T23:12:32.104Z,22.60
2023-04-23T23:14:59.330Z,22.08
2023-04-23T23:17:26.697Z,21.85
2023-04-23T23:19:54.108Z,24.83
2023-04-23T23:22:21.543Z,25.10
2023-04-23T23:24:48.800Z,24.30
2023-04-23T23:27:16.090Z,23.52
2023-04-23T23:29:43.737Z,25.45
2023-04-23T23:32:11.128Z,23.85
2023-04-23T23:34:38.505Z,25.38
2023-04-23T23:37:05.786Z,25.20
2023-04-23T23:39:32.986Z,25.88
2023-04-23T23:42:01.909Z,25.02
2023-04-23T23:44:29.598Z,24.17
2023-04-23T23:46:56.945Z,25.13
2023-04-23T23:49:24.337Z,24.33
2023-04-23T23:51:51.658Z,27.40
2023-04-23T23:54:18.917Z,25.35
2023-04-23T23:56:46.124Z,21.83
2023-04-23T23:59:13.555Z,23.00
